sensor_id;sensor_type;location;lat;lon;timestamp;temperature;humidity
2565;DHT22;1292;48.020;7.822;2023-02-15T06:46:08;0.00;99.90
2565;DHT22;1292;48.020;7.822;2023-02-15T06:48:35;0.00;99.90
2565;DHT22;1292;48.020;7.822;2023-02-15T06:51:02;0.00;99.90
2565;DHT22;1292;48.020;7.822;2023-02-15T06:53:30;0.10;99.90
2565;DHT22;1292;48.020;7.822;2023-02-15T06:56:00;0.10;99.90
2565;DHT22;1292;48.020;7.822;2023-02-15T06:58:28;0.20;99.90
2565;DHT22;1292;48.020;7.822;2023-02-15T07:00:55;0.30;99.90
2565;DHT22;1292;48.020;7.822;2023-02-15T07:03:23;0.10;99.90
2565;DHT22;1292;48.020;7.822;2023-02-15T07:05:54;0.10;99.90
2565;DHT22;1292;48.020;7.822;2023-02-15T07:08:21;0.20;99.90
2565;DHT22;1292;48.020;7.822;2023-02-15T07:10:48;0.20;99.90
2565;DHT22;1292;48.020;7.822;2023-02-15T07:13:15;0.20;99.90
2565;DHT22;1292;48.020;7.822;2023-02-15T07:15:41;0.30;99.90
2565;DHT22;1292;48.020;7.822;2023-02-15T07:18:08;0.30;99.90
2565;DHT22;1292;48.020;7.822;2023-02-15T07:20:37;0.40;99.90
2565;DHT22;1292;48.020;7.822;2023-02-15T07:23:06;0.40;99.90
2565;DHT22;1292;48.020;7.822;2023-02-15T07:25:33;0.40;99.90
2565;DHT22;1292;48.020;7.822;2023-02-15T07:28:01;0.20;99.90
2565;DHT22;1292;48.020;7.822;2023-02-15T07:30:29;0.10;99.90
2565;DHT22;1292;48.020;7.822;2023-02-15T07:32:56;0.20;99.90
2565;DHT22;1292;48.020;7.822;2023-02-15T07:35:47;0.20;99.90
2565;DHT22;1292;48.020;7.822;2023-02-15T07:38:14;0.20;99.90
2565;DHT22;1292;48.020;7.822;2023-02-15T07:40:41;0.30;99.90
2565;DHT22;1292;48.020;7.822;2023-02-15T07:43:08;0.20;99.90
2565;DHT22;1292;48.020;7.822;2023-02-15T07:45:35;0.20;99.90
2565;DHT22;1292;48.020;7.822;2023-02-15T07:48:02;0.30;99.90
2565;DHT22;1292;48.020;7.822;2023-02-15T07:50:29;0.50;99.90
2565;DHT22;1292;48.020;7.822;2023-02-15T07:52:58;0.50;99.90
2565;DHT22;1292;48.020;7.822;2023-02-15T07:55:25;0.50;99.90
2565;DHT22;1292;48.020;7.822;2023-02-15T07:57:52;0.60;99.90
2565;DHT22;1292;48.020;7.822;2023-02-15T08:00:20;0.70;99.90
2565;DHT22;1292;48.020;7.822;2023-02-15T08:02:50;0.80;99.90
2565;DHT22;1292;48.020;7.822;2023-02-15T08:05:38;0.80;99.90
2565;DHT22;1292;48.020;7.822;2023-02-15T08:08:07;0.90;99.90
2565;DHT22;1292;48.020;7.822;2023-02-15T08:10:36;0.90;99.90
2565;DHT22;1292;48.020;7.822;2023-02-15T08:13:20;0.90;99.90
2565;DHT22;1292;48.020;7.822;2023-02-15T08:15:50;0.90;99.90
2565;DHT22;1292;48.020;7.822;2023-02-15T08:18:17;0.90;99.90
2565;DHT22;1292;48.020;7.822;2023-02-15T08:20:48;1.00;99.90
2565;DHT22;1292;48.020;7.822;2023-02-15T08:23:17;1.00;99.90
2565;DHT22;1292;48.020;7.822;2023-02-15T08:25:43;1.00;99.90
2565;DHT22;1292;48.020;7.822;2023-02-15T08:28:10;1.00;99.90
2565;DHT22;1292;48.020;7.822;2023-02-15T08:30:37;1.10;99.90
2565;DHT22;1292;48.020;7.822;2023-02-15T08:33:04;1.20;99.90
2565;DHT22;1292;48.020;7.822;2023-02-15T08:35:30;1.10;99.90
2565;DHT22;1292;48.020;7.822;2023-02-15T08:37:57;1.20;99.90
2565;DHT22;1292;48.020;7.822;2023-02-15T08:40:25;0.80;99.90
2565;DHT22;1292;48.020;7.822;2023-02-15T08:42:52;0.90;99.90
2565;DHT22;1292;48.020;7.822;2023-02-15T08:45:19;1.00;99.90
2565;DHT22;1292;48.020;7.822;2023-02-15T08:47:46;1.10;99.90
2565;DHT22;1292;48.020;7.822;2023-02-15T08:50:13;1.20;99.90
2565;DHT22;1292;48.020;7.822;2023-02-15T08:52:39;1.20;99.90
2565;DHT22;1292;48.020;7.822;2023-02-15T08:55:06;1.20;99.90
2565;DHT22;1292;48.020;7.822;2023-02-15T08:57:34;1.20;99.90
2565;DHT22;1292;48.020;7.822;2023-02-15T09:00:03;1.00;99.90
2565;DHT22;1292;48.020;7.822;2023-02-15T09:02:30;1.10;99.90
2565;DHT22;1292;48.020;7.822;2023-02-15T09:04:57;1.10;99.90
2565;DHT22;1292;48.020;7.822;2023-02-15T09:07:24;1.10;99.90
2565;DHT22;1292;48.020;7.822;2023-02-15T09:09:51;1.10;99.90
2565;DHT22;1292;48.020;7.822;2023-02-15T09:12:18;1.10;99.90
2565;DHT22;1292;48.020;7.822;2023-02-15T09:14:46;0.90;99.90
2565;DHT22;1292;48.020;7.822;2023-02-15T09:17:12;1.00;99.90
2565;DHT22;1292;48.020;7.822;2023-02-15T09:19:39;1.00;99.90
2565;DHT22;1292;48.020;7.822;2023-02-15T09:22:06;1.00;99.90
2565;DHT22;1292;48.020;7.822;2023-02-15T09:24:33;1.20;99.90
2565;DHT22;1292;48.020;7.822;2023-02-15T09:27:00;1.30;99.90
2565;DHT22;1292;48.020;7.822;2023-02-15T09:29:26;1.30;99.90
2565;DHT22;1292;48.020;7.822;2023-02-15T09:31:54;1.40;99.90
2565;DHT22;1292;48.020;7.822;2023-02-15T09:34:22;1.60;99.90
2565;DHT22;1292;48.020;7.822;2023-02-15T09:36:50;1.60;99.90
2565;DHT22;1292;48.020;7.822;2023-02-15T09:39:18;1.70;99.90
2565;DHT22;1292;48.020;7.822;2023-02-15T09:42:16;1.50;99.90
2565;DHT22;1292;48.020;7.822;2023-02-15T09:48:01;1.50;99.90
2565;DHT22;1292;48.020;7.822;2023-02-15T09:50:34;1.60;99.90
2565;DHT22;1292;48.020;7.822;2023-02-15T09:53:15;1.50;99.90
2565;DHT22;1292;48.020;7.822;2023-02-15T09:55:51;1.60;99.90
2565;DHT22;1292;48.020;7.822;2023-02-15T09:58:28;1.60;99.90
2565;DHT22;1292;48.020;7.822;2023-02-15T10:01:02;1.60;99.90
2565;DHT22;1292;48.020;7.822;2023-02-15T10:03:42;1.60;99.90
2565;DHT22;1292;48.020;7.822;2023-02-15T10:06:32;1.80;99.90
2565;DHT22;1292;48.020;7.822;2023-02-15T10:09:49;1.80;99.90
2565;DHT22;1292;48.020;7.822;2023-02-15T10:12:37;1.80;99.90
2565;DHT22;1292;48.020;7.822;2023-02-15T10:15:27;1.70;99.90
2565;DHT22;1292;48.020;7.822;2023-02-15T10:18:10;1.70;99.90
2565;DHT22;1292;48.020;7.822;2023-02-15T10:20:48;1.80;99.90
2565;DHT22;1292;48.020;7.822;2023-02-15T10:23:37;1.90;99.90
2565;DHT22;1292;48.020;7.822;2023-02-15T10:26:12;2.00;99.90
2565;DHT22;1292;48.020;7.822;2023-02-15T10:28:46;1.90;99.90
2565;DHT22;1292;48.020;7.822;2023-02-15T10:31:23;1.70;99.90
2565;DHT22;1292;48.020;7.822;2023-02-15T10:34:02;1.80;99.90
2565;DHT22;1292;48.020;7.822;2023-02-15T10:36:43;1.90;99.90
2565;DHT22;1292;48.020;7.822;2023-02-15T10:39:21;2.00;99.90
2565;DHT22;1292;48.020;7.822;2023-02-15T10:41:56;2.10;99.90
2565;DHT22;1292;48.020;7.822;2023-02-15T10:44:35;2.20;99.90
2565;DHT22;1292;48.020;7.822;2023-02-15T10:47:22;2.30;99.90
2565;DHT22;1292;48.020;7.822;2023-02-15T10:50:06;2.30;99.90
2565;DHT22;1292;48.020;7.822;2023-02-15T10:52:46;2.30;99.90
2565;DHT22;1292;48.020;7.822;2023-02-15T10:55:22;2.30;99.90
2565;DHT22;1292;48.020;7.822;2023-02-15T10:57:56;2.40;99.90
2565;DHT22;1292;48.020;7.822;2023-02-15T11:00:29;2.40;99.90
2565;DHT22;1292;48.020;7.822;2023-02-15T11:03:09;2.40;99.90
2565;DHT22;1292;48.020;7.822;2023-02-15T11:05:44;2.40;99.90
2565;DHT22;1292;48.020;7.822;2023-02-15T11:08:17;2.40;99.90
2565;DHT22;1292;48.020;7.822;2023-02-15T11:10:48;2.50;99.90
2565;DHT22;1292;48.020;7.822;2023-02-15T11:13:18;2.60;99.90
2565;DHT22;1292;48.020;7.822;2023-02-15T11:15:49;2.70;99.90
2565;DHT22;1292;48.020;7.822;2023-02-15T11:18:23;2.80;99.90
2565;DHT22;1292;48.020;7.822;2023-02-15T11:20:54;2.80;99.90
2565;DHT22;1292;48.020;7.822;2023-02-15T11:23:24;2.90;99.90
2565;DHT22;1292;48.020;7.822;2023-02-15T11:25:56;3.00;99.90
2565;DHT22;1292;48.020;7.822;2023-02-15T11:28:27;3.20;99.90
2565;DHT22;1292;48.020;7.822;2023-02-15T11:30:57;3.40;99.90
2565;DHT22;1292;48.020;7.822;2023-02-15T11:33:27;3.60;99.90
2565;DHT22;1292;48.020;7.822;2023-02-15T11:35:59;3.70;99.90
2565;DHT22;1292;48.020;7.822;2023-02-15T11:38:32;3.50;99.90
2565;DHT22;1292;48.020;7.822;2023-02-15T11:41:02;3.60;99.90
2565;DHT22;1292;48.020;7.822;2023-02-15T11:43:34;3.60;99.90
2565;DHT22;1292;48.020;7.822;2023-02-15T11:46:03;3.80;99.90
2565;DHT22;1292;48.020;7.822;2023-02-15T11:48:31;4.00;99.90
2565;DHT22;1292;48.020;7.822;2023-02-15T11:50:58;3.90;99.90
2565;DHT22;1292;48.020;7.822;2023-02-15T11:53:35;4.10;99.90
2565;DHT22;1292;48.020;7.822;2023-02-15T11:56:03;4.10;99.90
2565;DHT22;1292;48.020;7.822;2023-02-15T11:58:36;4.20;99.90
2565;DHT22;1292;48.020;7.822;2023-02-15T12:01:11;4.30;99.90
2565;DHT22;1292;48.020;7.822;2023-02-15T12:03:45;4.40;99.90
2565;DHT22;1292;48.020;7.822;2023-02-15T12:06:17;4.40;99.90
2565;DHT22;1292;48.020;7.822;2023-02-15T12:08:51;4.50;99.90
2565;DHT22;1292;48.020;7.822;2023-02-15T12:11:27;4.60;99.90
2565;DHT22;1292;48.020;7.822;2023-02-15T12:13:58;4.80;99.90
2565;DHT22;1292;48.020;7.822;2023-02-15T12:16:26;4.90;99.90
2565;DHT22;1292;48.020;7.822;2023-02-15T12:18:58;5.10;99.90
2565;DHT22;1292;48.020;7.822;2023-02-15T12:21:28;5.20;99.90
2565;DHT22;1292;48.020;7.822;2023-02-15T12:24:00;5.20;99.90
2565;DHT22;1292;48.020;7.822;2023-02-15T12:26:29;5.20;99.90
2565;DHT22;1292;48.020;7.822;2023-02-15T12:29:00;5.20;99.90
2565;DHT22;1292;48.020;7.822;2023-02-15T12:31:31;5.20;99.90
2565;DHT22;1292;48.020;7.822;2023-02-15T12:34:02;5.30;99.90
2565;DHT22;1292;48.020;7.822;2023-02-15T12:36:32;5.50;99.90
2565;DHT22;1292;48.020;7.822;2023-02-15T12:39:15;5.60;99.90
2565;DHT22;1292;48.020;7.822;2023-02-15T12:41:46;5.70;99.90
2565;DHT22;1292;48.020;7.822;2023-02-15T12:44:21;5.70;99.90
2565;DHT22;1292;48.020;7.822;2023-02-15T12:46:57;5.80;99.90
2565;DHT22;1292;48.020;7.822;2023-02-15T12:49:24;5.80;99.90
2565;DHT22;1292;48.020;7.822;2023-02-15T12:51:53;5.60;99.90
2565;DHT22;1292;48.020;7.822;2023-02-15T12:54:37;5.50;99.90
2565;DHT22;1292;48.020;7.822;2023-02-15T12:57:24;5.60;99.90
2565;DHT22;1292;48.020;7.822;2023-02-15T12:59:54;5.60;99.90
2565;DHT22;1292;48.020;7.822;2023-02-15T13:02:24;5.80;99.90
2565;DHT22;1292;48.020;7.822;2023-02-15T13:04:53;5.90;99.90
2565;DHT22;1292;48.020;7.822;2023-02-15T13:07:20;6.00;99.90
2565;DHT22;1292;48.020;7.822;2023-02-15T13:09:49;6.00;99.90
2565;DHT22;1292;48.020;7.822;2023-02-15T13:12:20;6.00;99.90
2565;DHT22;1292;48.020;7.822;2023-02-15T13:14:50;6.00;99.90
2565;DHT22;1292;48.020;7.822;2023-02-15T13:17:20;6.00;99.90
2565;DHT22;1292;48.020;7.822;2023-02-15T13:19:51;6.10;99.90
2565;DHT22;1292;48.020;7.822;2023-02-15T13:22:22;6.10;99.90
2565;DHT22;1292;48.020;7.822;2023-02-15T13:24:53;6.30;99.90
2565;DHT22;1292;48.020;7.822;2023-02-15T13:27:22;6.40;99.90
2565;DHT22;1292;48.020;7.822;2023-02-15T13:29:52;6.30;99.90
2565;DHT22;1292;48.020;7.822;2023-02-15T13:32:27;6.40;99.90
2565;DHT22;1292;48.020;7.822;2023-02-15T13:34:57;6.50;99.90
2565;DHT22;1292;48.020;7.822;2023-02-15T13:40:27;6.40;99.90
2565;DHT22;1292;48.020;7.822;2023-02-15T13:43:02;6.50;99.90
2565;DHT22;1292;48.020;7.822;2023-02-15T13:45:39;6.60;99.90
2565;DHT22;1292;48.020;7.822;2023-02-15T13:48:15;6.70;99.90
2565;DHT22;1292;48.020;7.822;2023-02-15T13:50:56;6.80;99.90
2565;DHT22;1292;48.020;7.822;2023-02-15T13:56:38;6.90;99.90
2565;DHT22;1292;48.020;7.822;2023-02-15T13:59:20;6.90;99.90
2565;DHT22;1292;48.020;7.822;2023-02-15T14:01:54;7.00;99.90
2565;DHT22;1292;48.020;7.822;2023-02-15T14:04:41;7.10;99.90
2565;DHT22;1292;48.020;7.822;2023-02-15T14:07:29;7.10;99.90
2565;DHT22;1292;48.020;7.822;2023-02-15T14:10:15;7.20;99.90
2565;DHT22;1292;48.020;7.822;2023-02-15T14:12:58;7.20;99.90
2565;DHT22;1292;48.020;7.822;2023-02-15T14:15:35;7.20;99.90
2565;DHT22;1292;48.020;7.822;2023-02-15T14:18:16;7.30;99.90
2565;DHT22;1292;48.020;7.822;2023-02-15T14:20:51;7.30;99.90
2565;DHT22;1292;48.020;7.822;2023-02-15T14:23:27;7.10;99.90
2565;DHT22;1292;48.020;7.822;2023-02-15T14:25:59;7.20;99.90
2565;DHT22;1292;48.020;7.822;2023-02-15T14:28:34;7.20;99.90
2565;DHT22;1292;48.020;7.822;2023-02-15T14:31:04;7.20;99.90
2565;DHT22;1292;48.020;7.822;2023-02-15T14:33:37;7.30;99.90
2565;DHT22;1292;48.020;7.822;2023-02-15T14:36:07;7.40;99.90
2565;DHT22;1292;48.020;7.822;2023-02-15T14:38:47;7.40;99.90
2565;DHT22;1292;48.020;7.822;2023-02-15T14:41:18;7.50;99.90
2565;DHT22;1292;48.020;7.822;2023-02-15T14:43:52;7.60;99.90
2565;DHT22;1292;48.020;7.822;2023-02-15T14:46:27;7.60;99.90
2565;DHT22;1292;48.020;7.822;2023-02-15T14:49:03;7.70;99.90
2565;DHT22;1292;48.020;7.822;2023-02-15T14:52:00;7.70;99.90
2565;DHT22;1292;48.020;7.822;2023-02-15T14:54:56;7.70;99.90
2565;DHT22;1292;48.020;7.822;2023-02-15T14:57:34;7.70;99.90
2565;DHT22;1292;48.020;7.822;2023-02-15T15:02:52;7.80;99.90
2565;DHT22;1292;48.020;7.822;2023-02-15T15:05:23;7.80;99.90
2565;DHT22;1292;48.020;7.822;2023-02-15T15:07:52;7.80;99.90
2565;DHT22;1292;48.020;7.822;2023-02-15T15:10:41;7.70;99.90
2565;DHT22;1292;48.020;7.822;2023-02-15T15:13:37;7.70;99.90
2565;DHT22;1292;48.020;7.822;2023-02-15T15:16:49;7.60;99.90
2565;DHT22;1292;48.020;7.822;2023-02-15T15:22:23;7.70;99.90
2565;DHT22;1292;48.020;7.822;2023-02-15T15:24:54;7.50;99.90
2565;DHT22;1292;48.020;7.822;2023-02-15T15:27:44;7.50;99.90
2565;DHT22;1292;48.020;7.822;2023-02-15T15:33:47;7.20;99.90
2565;DHT22;1292;48.020;7.822;2023-02-15T15:39:26;7.00;99.90
2565;DHT22;1292;48.020;7.822;2023-02-15T15:42:03;6.90;99.90
2565;DHT22;1292;48.020;7.822;2023-02-15T15:44:58;6.80;99.90
2565;DHT22;1292;48.020;7.822;2023-02-15T15:47:47;6.80;99.90
2565;DHT22;1292;48.020;7.822;2023-02-15T15:50:19;6.70;99.90
2565;DHT22;1292;48.020;7.822;2023-02-15T15:52:50;6.50;99.90
2565;DHT22;1292;48.020;7.822;2023-02-15T15:55:20;6.50;99.90
2565;DHT22;1292;48.020;7.822;2023-02-15T15:57:50;6.50;99.90
2565;DHT22;1292;48.020;7.822;2023-02-15T16:00:30;6.60;99.90
2565;DHT22;1292;48.020;7.822;2023-02-15T16:02:59;6.60;99.90
2565;DHT22;1292;48.020;7.822;2023-02-15T16:05:35;6.50;99.90
2565;DHT22;1292;48.020;7.822;2023-02-15T16:08:02;6.50;99.90
2565;DHT22;1292;48.020;7.822;2023-02-15T16:10:29;6.50;99.90
2565;DHT22;1292;48.020;7.822;2023-02-15T16:12:57;6.40;99.90
2565;DHT22;1292;48.020;7.822;2023-02-15T16:15:27;6.40;99.90
2565;DHT22;1292;48.020;7.822;2023-02-15T16:17:57;6.40;99.90
2565;DHT22;1292;48.020;7.822;2023-02-15T16:20:29;6.40;99.90
2565;DHT22;1292;48.020;7.822;2023-02-15T16:23:07;6.40;99.90
2565;DHT22;1292;48.020;7.822;2023-02-15T16:25:45;6.30;99.90
2565;DHT22;1292;48.020;7.822;2023-02-15T16:28:14;6.20;99.90
2565;DHT22;1292;48.020;7.822;2023-02-15T16:30:44;6.20;99.90
2565;DHT22;1292;48.020;7.822;2023-02-15T16:33:12;6.20;99.90
2565;DHT22;1292;48.020;7.822;2023-02-15T16:35:53;6.10;99.90
2565;DHT22;1292;48.020;7.822;2023-02-15T16:38:24;6.10;99.90
2565;DHT22;1292;48.020;7.822;2023-02-15T16:40:56;6.10;99.90
2565;DHT22;1292;48.020;7.822;2023-02-15T16:43:26;6.00;99.90
2565;DHT22;1292;48.020;7.822;2023-02-15T16:46:04;6.00;99.90
2565;DHT22;1292;48.020;7.822;2023-02-15T16:48:32;6.00;99.90
2565;DHT22;1292;48.020;7.822;2023-02-15T16:51:02;6.00;99.90
2565;DHT22;1292;48.020;7.822;2023-02-15T16:53:29;5.90;99.90
2565;DHT22;1292;48.020;7.822;2023-02-15T16:55:58;5.90;99.90
2565;DHT22;1292;48.020;7.822;2023-02-15T16:58:30;5.90;99.90
2565;DHT22;1292;48.020;7.822;2023-02-15T17:00:59;5.80;99.90
2565;DHT22;1292;48.020;7.822;2023-02-15T17:03:27;5.80;99.90
2565;DHT22;1292;48.020;7.822;2023-02-15T17:05:55;5.60;99.90
2565;DHT22;1292;48.020;7.822;2023-02-15T17:08:32;5.60;99.90
2565;DHT22;1292;48.020;7.822;2023-02-15T17:11:15;5.60;99.90
2565;DHT22;1292;48.020;7.822;2023-02-15T17:14:11;5.50;99.90
2565;DHT22;1292;48.020;7.822;2023-02-15T17:16:42;5.50;99.90
2565;DHT22;1292;48.020;7.822;2023-02-15T17:19:15;5.40;99.90
2565;DHT22;1292;48.020;7.822;2023-02-15T17:21:48;5.30;99.90
2565;DHT22;1292;48.020;7.822;2023-02-15T17:24:21;5.20;99.90
2565;DHT22;1292;48.020;7.822;2023-02-15T17:26:53;5.20;99.90
2565;DHT22;1292;48.020;7.822;2023-02-15T17:29:30;5.10;99.90
2565;DHT22;1292;48.020;7.822;2023-02-15T17:31:58;5.10;99.90
2565;DHT22;1292;48.020;7.822;2023-02-15T17:34:44;5.10;99.90
2565;DHT22;1292;48.020;7.822;2023-02-15T17:37:13;5.00;99.90
2565;DHT22;1292;48.020;7.822;2023-02-15T17:39:41;5.00;99.90
2565;DHT22;1292;48.020;7.822;2023-02-15T17:42:08;4.90;99.90
2565;DHT22;1292;48.020;7.822;2023-02-15T17:44:35;4.80;99.90
2565;DHT22;1292;48.020;7.822;2023-02-15T17:47:03;4.80;99.90
2565;DHT22;1292;48.020;7.822;2023-02-15T17:49:30;4.70;99.90
2565;DHT22;1292;48.020;7.822;2023-02-15T17:51:59;4.60;99.90
2565;DHT22;1292;48.020;7.822;2023-02-15T17:54:27;4.60;99.90
2565;DHT22;1292;48.020;7.822;2023-02-15T17:57:14;4.40;99.90
2565;DHT22;1292;48.020;7.822;2023-02-15T17:59:42;4.30;99.90
2565;DHT22;1292;48.020;7.822;2023-02-15T18:02:28;4.30;99.90
2565;DHT22;1292;48.020;7.822;2023-02-15T18:05:16;4.30;99.90
2565;DHT22;1292;48.020;7.822;2023-02-15T18:08:00;4.20;99.90
2565;DHT22;1292;48.020;7.822;2023-02-15T18:10:44;4.20;99.90
2565;DHT22;1292;48.020;7.822;2023-02-15T18:13:30;4.00;99.90
2565;DHT22;1292;48.020;7.822;2023-02-15T18:15:57;4.00;99.90
2565;DHT22;1292;48.020;7.822;2023-02-15T18:18:24;3.90;99.90
2565;DHT22;1292;48.020;7.822;2023-02-15T18:20:50;3.90;99.90
2565;DHT22;1292;48.020;7.822;2023-02-15T18:25:45;3.90;99.90
2565;DHT22;1292;48.020;7.822;2023-02-15T18:28:12;3.80;99.90
2565;DHT22;1292;48.020;7.822;2023-02-15T18:30:40;3.70;99.90
2565;DHT22;1292;48.020;7.822;2023-02-15T18:33:21;3.80;99.90
2565;DHT22;1292;48.020;7.822;2023-02-15T18:35:51;3.80;99.90
2565;DHT22;1292;48.020;7.822;2023-02-15T18:38:18;3.80;99.90
2565;DHT22;1292;48.020;7.822;2023-02-15T18:40:45;3.80;99.90
2565;DHT22;1292;48.020;7.822;2023-02-15T18:43:12;3.70;99.90
2565;DHT22;1292;48.020;7.822;2023-02-15T18:45:40;3.70;99.90
2565;DHT22;1292;48.020;7.822;2023-02-15T18:48:07;3.60;99.90
2565;DHT22;1292;48.020;7.822;2023-02-15T18:50:35;3.60;99.90
2565;DHT22;1292;48.020;7.822;2023-02-15T18:53:04;3.40;99.90
2565;DHT22;1292;48.020;7.822;2023-02-15T18:55:32;3.40;99.90
2565;DHT22;1292;48.020;7.822;2023-02-15T18:58:00;3.50;99.90
2565;DHT22;1292;48.020;7.822;2023-02-15T19:00:28;3.50;99.90
2565;DHT22;1292;48.020;7.822;2023-02-15T19:02:59;3.50;99.90
2565;DHT22;1292;48.020;7.822;2023-02-15T19:05:27;3.30;99.90
2565;DHT22;1292;48.020;7.822;2023-02-15T19:07:55;3.30;99.90
2565;DHT22;1292;48.020;7.822;2023-02-15T19:10:24;3.30;99.90
2565;DHT22;1292;48.020;7.822;2023-02-15T19:12:52;3.30;99.90
2565;DHT22;1292;48.020;7.822;2023-02-15T19:15:21;3.30;99.90
2565;DHT22;1292;48.020;7.822;2023-02-15T19:17:48;3.30;99.90
2565;DHT22;1292;48.020;7.822;2023-02-15T19:20:18;3.30;99.90
2565;DHT22;1292;48.020;7.822;2023-02-15T19:22:46;3.30;99.90
2565;DHT22;1292;48.020;7.822;2023-02-15T19:25:18;3.30;99.90
2565;DHT22;1292;48.020;7.822;2023-02-15T19:27:45;3.30;99.90
2565;DHT22;1292;48.020;7.822;2023-02-15T19:30:14;3.20;99.90
2565;DHT22;1292;48.020;7.822;2023-02-15T19:32:42;3.10;99.90
2565;DHT22;1292;48.020;7.822;2023-02-15T19:35:12;3.10;99.90
2565;DHT22;1292;48.020;7.822;2023-02-15T19:37:43;3.10;99.90
2565;DHT22;1292;48.020;7.822;2023-02-15T19:40:17;3.10;99.90
2565;DHT22;1292;48.020;7.822;2023-02-15T19:42:45;3.20;99.90
2565;DHT22;1292;48.020;7.822;2023-02-15T19:45:13;3.10;99.90
2565;DHT22;1292;48.020;7.822;2023-02-15T19:47:40;3.00;99.90
2565;DHT22;1292;48.020;7.822;2023-02-15T19:50:12;3.00;99.90
2565;DHT22;1292;48.020;7.822;2023-02-15T19:52:41;2.70;99.90
2565;DHT22;1292;48.020;7.822;2023-02-15T19:55:15;2.70;99.90
2565;DHT22;1292;48.020;7.822;2023-02-15T19:57:43;2.70;99.90
2565;DHT22;1292;48.020;7.822;2023-02-15T20:00:15;2.80;99.90
2565;DHT22;1292;48.020;7.822;2023-02-15T20:02:43;2.80;99.90
2565;DHT22;1292;48.020;7.822;2023-02-15T20:05:10;2.80;99.90
2565;DHT22;1292;48.020;7.822;2023-02-15T20:07:37;2.70;99.90
2565;DHT22;1292;48.020;7.822;2023-02-15T20:10:13;2.60;99.90
2565;DHT22;1292;48.020;7.822;2023-02-15T20:12:40;2.60;99.90
2565;DHT22;1292;48.020;7.822;2023-02-15T20:15:16;2.60;99.90
2565;DHT22;1292;48.020;7.822;2023-02-15T20:17:44;2.60;99.90
2565;DHT22;1292;48.020;7.822;2023-02-15T20:20:12;2.60;99.90
2565;DHT22;1292;48.020;7.822;2023-02-15T20:22:40;2.50;99.90
2565;DHT22;1292;48.020;7.822;2023-02-15T20:25:12;2.50;99.90
2565;DHT22;1292;48.020;7.822;2023-02-15T20:27:41;2.40;99.90
2565;DHT22;1292;48.020;7.822;2023-02-15T20:30:16;2.60;99.90
2565;DHT22;1292;48.020;7.822;2023-02-15T20:32:43;2.40;99.90
2565;DHT22;1292;48.020;7.822;2023-02-15T20:35:13;2.40;99.90
2565;DHT22;1292;48.020;7.822;2023-02-15T20:37:40;2.40;99.90
2565;DHT22;1292;48.020;7.822;2023-02-15T20:40:15;2.40;99.90
2565;DHT22;1292;48.020;7.822;2023-02-15T20:42:42;2.40;99.90
2565;DHT22;1292;48.020;7.822;2023-02-15T20:45:14;2.30;99.90
2565;DHT22;1292;48.020;7.822;2023-02-15T20:47:41;2.20;99.90
2565;DHT22;1292;48.020;7.822;2023-02-15T20:50:13;2.20;99.90
2565;DHT22;1292;48.020;7.822;2023-02-15T20:52:40;2.20;99.90
2565;DHT22;1292;48.020;7.822;2023-02-15T20:55:14;2.00;99.90
2565;DHT22;1292;48.020;7.822;2023-02-15T20:57:41;1.90;99.90
2565;DHT22;1292;48.020;7.822;2023-02-15T21:00:13;1.80;99.90
2565;DHT22;1292;48.020;7.822;2023-02-15T21:02:40;1.70;99.90
2565;DHT22;1292;48.020;7.822;2023-02-15T21:05:18;1.60;99.90
2565;DHT22;1292;48.020;7.822;2023-02-15T21:07:46;1.60;99.90
2565;DHT22;1292;48.020;7.822;2023-02-15T21:10:16;1.50;99.90
2565;DHT22;1292;48.020;7.822;2023-02-15T21:12:43;1.60;99.90
2565;DHT22;1292;48.020;7.822;2023-02-15T21:15:27;1.50;99.90
2565;DHT22;1292;48.020;7.822;2023-02-15T21:17:55;1.40;99.90
2565;DHT22;1292;48.020;7.822;2023-02-15T21:20:23;1.40;99.90
2565;DHT22;1292;48.020;7.822;2023-02-15T21:22:50;1.40;99.90
2565;DHT22;1292;48.020;7.822;2023-02-15T21:25:23;1.30;99.90
2565;DHT22;1292;48.020;7.822;2023-02-15T21:27:51;1.30;99.90
2565;DHT22;1292;48.020;7.822;2023-02-15T21:30:19;1.30;99.90
2565;DHT22;1292;48.020;7.822;2023-02-15T21:32:47;1.40;99.90
2565;DHT22;1292;48.020;7.822;2023-02-15T21:35:15;1.30;99.90
2565;DHT22;1292;48.020;7.822;2023-02-15T21:37:44;1.30;99.90
2565;DHT22;1292;48.020;7.822;2023-02-15T21:40:16;1.30;99.90
2565;DHT22;1292;48.020;7.822;2023-02-15T21:42:45;1.30;99.90
2565;DHT22;1292;48.020;7.822;2023-02-15T21:45:29;1.20;99.90
2565;DHT22;1292;48.020;7.822;2023-02-15T21:48:14;1.20;99.90
2565;DHT22;1292;48.020;7.822;2023-02-15T21:50:41;1.20;99.90
2565;DHT22;1292;48.020;7.822;2023-02-15T21:53:27;1.20;99.90
2565;DHT22;1292;48.020;7.822;2023-02-15T21:55:57;1.10;99.90
2565;DHT22;1292;48.020;7.822;2023-02-15T21:58:27;1.20;99.90
